Time;durP1;ratioP1;P1;durP2;ratioP2;P2;SDS_P1;SDS_P2;PMS_P1;PMS_P2;Temp;Humidity;BMP_temperature;BMP_pressure;BME280_temperature;BME280_humidity;BME280_pressure;Samples;Min_cycle;Max_cycle;Signal;HPM_P1;HPM_P2
2023/07/26 00:01:42;;;;;;;6.67;6.07;;;20.80;50.10;;;;;;5071981;28;20238;-53
2023/07/26 00:04:08;;;;;;;8.63;6.00;;;20.80;50.20;;;;;;5071829;28;20529;-51
2023/07/26 00:06:34;;;;;;;9.67;5.40;;;20.90;50.20;;;;;;5071921;28;20632;-53
2023/07/26 00:09:00;;;;;;;8.30;6.50;;;20.80;50.20;;;;;;5071827;28;20418;-53
2023/07/26 00:11:26;;;;;;;9.10;6.33;;;20.90;50.50;;;;;;5071617;28;20522;-51
2023/07/26 00:13:52;;;;;;;7.40;6.70;;;20.90;50.50;;;;;;5071647;28;21092;-52
2023/07/26 00:16:17;;;;;;;8.10;5.77;;;20.90;50.50;;;;;;5071724;28;20403;-51
2023/07/26 00:18:43;;;;;;;7.33;5.87;;;20.90;50.30;;;;;;5071751;28;20168;-53
2023/07/26 00:21:09;;;;;;;12.77;6.97;;;20.90;50.40;;;;;;5071748;28;20199;-52
2023/07/26 00:23:35;;;;;;;10.00;7.20;;;20.90;50.30;;;;;;5071812;28;20172;-50
2023/07/26 00:26:02;;;;;;;8.20;6.07;;;20.90;50.30;;;;;;5071575;28;20402;-52
2023/07/26 00:28:29;;;;;;;8.20;6.40;;;20.90;50.30;;;;;;5071614;28;20292;-50
2023/07/26 00:30:55;;;;;;;8.00;6.20;;;20.90;50.30;;;;;;5071396;28;20437;-52
2023/07/26 00:33:21;;;;;;;8.90;6.13;;;20.90;50.20;;;;;;5074454;28;21198;-53
2023/07/26 00:35:47;;;;;;;9.80;6.10;;;20.90;50.20;;;;;;5075484;28;20452;-53
2023/07/26 00:38:13;;;;;;;7.40;6.13;;;20.90;50.20;;;;;;5075515;28;20196;-52
2023/07/26 00:40:39;;;;;;;11.40;7.20;;;20.90;50.20;;;;;;5074978;28;20200;-53
2023/07/26 00:43:05;;;;;;;7.50;5.93;;;20.90;50.20;;;;;;5075425;28;20251;-53
2023/07/26 00:45:35;;;;;;;9.43;6.27;;;20.90;50.20;;;;;;5075502;28;20422;-52
2023/07/26 00:48:01;;;;;;;9.27;6.03;;;20.90;50.20;;;;;;5075237;28;20414;-50
2023/07/26 00:50:27;;;;;;;7.10;5.20;;;20.90;50.20;;;;;;5075137;28;20521;-53
2023/07/26 00:52:53;;;;;;;8.87;6.00;;;20.90;50.20;;;;;;5075123;28;20466;-53
2023/07/26 00:55:19;;;;;;;7.17;6.37;;;20.90;50.40;;;;;;5075121;28;20403;-51
2023/07/26 00:57:46;;;;;;;9.23;5.77;;;20.90;50.30;;;;;;5075083;28;20407;-53
2023/07/26 01:00:13;;;;;;;9.90;6.73;;;20.90;50.20;;;;;;5074696;28;20398;-53
2023/07/26 01:02:39;;;;;;;10.30;5.80;;;20.90;50.20;;;;;;5075225;28;20434;-53
2023/07/26 01:05:06;;;;;;;10.80;7.47;;;20.90;50.20;;;;;;5075078;28;20532;-53
2023/07/26 01:07:59;;;;;;;6.37;5.77;;;20.90;50.30;;;;;;5074907;28;20444;-52
2023/07/26 01:10:35;;;;;;;7.70;6.27;;;20.90;50.30;;;;;;5074470;28;20565;-52
2023/07/26 01:13:20;;;;;;;18.42;6.80;;;20.90;50.20;;;;;;5074721;28;20477;-53
2023/07/26 01:15:49;;;;;;;7.60;6.80;;;20.90;50.10;;;;;;5074796;28;20173;-52
2023/07/26 01:18:16;;;;;;;9.23;6.73;;;20.90;50.10;;;;;;5074952;28;20429;-52
2023/07/26 01:20:43;;;;;;;9.40;5.70;;;20.90;50.20;;;;;;5074350;28;20521;-52
2023/07/26 01:23:09;;;;;;;8.40;6.57;;;20.90;50.20;;;;;;5074503;28;20541;-53
2023/07/26 01:25:35;;;;;;;8.97;5.97;;;20.80;50.20;;;;;;5074836;28;20790;-53
2023/07/26 01:28:01;;;;;;;9.83;5.97;;;20.80;50.30;;;;;;5074544;28;20411;-53
2023/07/26 01:30:30;;;;;;;9.40;6.10;;;20.90;50.30;;;;;;5074289;28;20434;-52
2023/07/26 01:32:58;;;;;;;5.32;4.68;;;20.80;50.10;;;;;;5074426;28;20447;-52
2023/07/26 01:35:25;;;;;;;6.57;5.60;;;20.80;50.20;;;;;;5074420;28;20168;-52
2023/07/26 01:37:54;;;;;;;6.00;5.30;;;20.80;50.20;;;;;;5074329;28;20789;-52
2023/07/26 01:40:21;;;;;;;11.60;6.13;;;20.80;50.20;;;;;;5074024;28;20448;-54
2023/07/26 01:42:48;;;;;;;11.80;6.70;;;20.80;50.10;;;;;;5073907;28;20407;-51
2023/07/26 01:45:14;;;;;;;8.27;5.70;;;20.80;50.00;;;;;;5073383;28;20915;-50
2023/07/26 01:47:40;;;;;;;10.40;5.70;;;20.80;50.10;;;;;;5074154;28;20414;-53
2023/07/26 01:50:07;;;;;;;9.30;5.80;;;20.70;50.10;;;;;;5073836;28;20415;-53
2023/07/26 01:52:33;;;;;;;11.60;5.63;;;20.70;50.10;;;;;;5073939;28;20283;-52
2023/07/26 01:54:59;;;;;;;8.07;5.40;;;20.70;50.00;;;;;;5073088;28;20502;-53
2023/07/26 01:57:25;;;;;;;9.97;5.40;;;20.70;49.70;;;;;;5073974;28;20411;-53
2023/07/26 01:59:54;;;;;;;8.20;5.70;;;20.70;49.80;;;;;;5073743;28;20403;-53
2023/07/26 02:02:20;;;;;;;6.80;5.37;;;20.70;49.70;;;;;;5073844;28;20414;-53
2023/07/26 02:04:46;;;;;;;9.80;5.53;;;20.70;49.30;;;;;;5073838;28;20767;-53
2023/07/26 02:07:12;;;;;;;6.88;5.07;;;20.60;49.40;;;;;;5073995;28;20415;-51
2023/07/26 02:09:38;;;;;;;5.40;4.20;;;20.50;49.30;;;;;;5072200;28;20173;-52
2023/07/26 02:12:05;;;;;;;7.03;4.53;;;20.50;49.50;;;;;;5073707;28;20247;-52
2023/07/26 02:14:30;;;;;;;5.57;5.05;;;20.50;49.40;;;;;;5073527;28;20433;-53
2023/07/26 02:16:56;;;;;;;8.43;4.80;;;20.50;49.40;;;;;;5073777;28;20263;-52
2023/07/26 02:19:22;;;;;;;12.03;4.70;;;20.40;49.30;;;;;;5073310;28;20910;-52
2023/07/26 02:21:48;;;;;;;6.77;6.00;;;20.40;49.30;;;;;;5073390;28;20435;-52
2023/07/26 02:24:14;;;;;;;12.23;5.63;;;20.40;49.30;;;;;;5073450;28;20497;-53
2023/07/26 02:26:40;;;;;;;5.70;4.37;;;20.40;49.00;;;;;;5073680;28;20173;-53
2023/07/26 02:29:05;;;;;;;5.97;4.07;;;20.30;49.20;;;;;;5073505;28;20940;-53
2023/07/26 02:31:31;;;;;;;8.83;4.57;;;20.30;49.30;;;;;;5073121;28;20188;-53
2023/07/26 02:33:57;;;;;;;10.13;5.23;;;20.30;49.30;;;;;;5073176;28;20196;-53
2023/07/26 02:36:24;;;;;;;11.53;4.87;;;20.20;49.20;;;;;;5073323;28;20180;-50
2023/07/26 02:38:50;;;;;;;13.43;5.13;;;20.20;49.20;;;;;;5073410;28;20171;-53
2023/07/26 02:41:16;;;;;;;9.93;4.60;;;20.20;49.30;;;;;;5072942;28;20553;-53
2023/07/26 02:43:41;;;;;;;5.40;4.57;;;20.10;49.10;;;;;;5073065;28;20407;-53
2023/07/26 02:46:08;;;;;;;9.47;4.83;;;20.10;49.50;;;;;;5073055;28;20486;-53
2023/07/26 02:48:35;;;;;;;7.30;5.70;;;20.20;49.50;;;;;;5072881;28;20592;-54
2023/07/26 02:51:00;;;;;;;7.25;5.03;;;20.10;49.50;;;;;;5072948;28;20205;-52
2023/07/26 02:53:26;;;;;;;10.20;4.30;;;20.10;49.40;;;;;;5072660;28;20200;-52
2023/07/26 02:55:52;;;;;;;12.67;5.30;;;20.10;49.20;;;;;;5072568;28;20180;-54
2023/07/26 02:58:18;;;;;;;11.17;4.77;;;20.10;49.10;;;;;;5072986;28;20172;-51
2023/07/26 03:00:43;;;;;;;11.10;4.37;;;20.10;49.30;;;;;;5072767;28;20270;-53
2023/07/26 03:03:09;;;;;;;10.37;5.40;;;20.00;49.50;;;;;;5072682;28;20195;-53
2023/07/26 03:05:38;;;;;;;5.53;5.03;;;20.00;49.60;;;;;;5072895;28;20207;-53
2023/07/26 03:08:04;;;;;;;11.45;5.05;;;20.10;49.90;;;;;;5072878;28;20533;-53
2023/07/26 03:10:32;;;;;;;9.90;4.95;;;20.00;49.80;;;;;;5069554;28;20222;-53
2023/07/26 03:12:57;;;;;;;10.63;4.93;;;20.10;49.80;;;;;;5070135;28;20591;-51
2023/07/26 03:15:23;;;;;;;7.73;5.40;;;20.10;49.50;;;;;;5072526;28;20169;-53
2023/07/26 03:17:49;;;;;;;12.10;5.03;;;20.10;49.90;;;;;;5072323;28;20195;-53
2023/07/26 03:20:15;;;;;;;10.70;4.47;;;20.10;50.00;;;;;;5072139;28;20180;-52
2023/07/26 03:22:40;;;;;;;17.27;6.30;;;20.10;49.70;;;;;;5072422;28;20184;-52
2023/07/26 03:25:07;;;;;;;11.13;5.83;;;20.10;49.60;;;;;;5072400;28;20797;-54
2023/07/26 03:27:33;;;;;;;10.45;4.85;;;20.10;49.70;;;;;;5072283;28;20823;-51
2023/07/26 03:29:58;;;;;;;10.50;5.00;;;20.10;49.40;;;;;;5071960;28;20183;-53
2023/07/26 03:32:24;;;;;;;6.97;4.73;;;20.10;49.50;;;;;;5072115;28;20210;-54
2023/07/26 03:34:50;;;;;;;10.50;5.13;;;20.00;49.40;;;;;;5072199;28;20168;-51
2023/07/26 03:37:16;;;;;;;10.70;5.50;;;20.00;49.60;;;;;;5072183;28;20172;-55
2023/07/26 03:39:41;;;;;;;8.00;5.20;;;20.00;49.90;;;;;;5072016;28;20306;-54
2023/07/26 03:42:07;;;;;;;15.03;6.03;;;20.00;49.90;;;;;;5072351;28;20189;-52
2023/07/26 03:44:33;;;;;;;11.00;5.50;;;20.00;49.70;;;;;;5072408;28;20552;-52
2023/07/26 03:46:59;;;;;;;13.43;5.37;;;20.00;49.80;;;;;;5072027;28;20414;-55
2023/07/26 03:49:25;;;;;;;12.13;5.03;;;20.00;49.70;;;;;;5071800;28;20421;-54
2023/07/26 03:51:50;;;;;;;11.30;5.13;;;20.00;49.50;;;;;;5072115;28;20270;-50
2023/07/26 03:54:16;;;;;;;10.93;5.20;;;20.00;49.60;;;;;;5071929;28;20265;-55
2023/07/26 03:56:42;;;;;;;12.63;5.73;;;20.00;50.20;;;;;;5071931;28;20165;-55
2023/07/26 03:59:08;;;;;;;10.63;5.60;;;19.90;49.60;;;;;;5071907;28;20196;-53
2023/07/26 04:01:33;;;;;;;8.33;5.30;;;20.00;49.70;;;;;;5072000;28;20181;-52
2023/07/26 04:03:59;;;;;;;13.03;5.33;;;20.00;49.90;;;;;;5072207;28;20259;-54
2023/07/26 04:06:25;;;;;;;11.33;5.37;;;20.00;50.00;;;;;;5071858;28;20199;-52
2023/07/26 04:08:51;;;;;;;10.97;5.87;;;20.00;50.00;;;;;;5075849;28;20180;-52
2023/07/26 04:11:16;;;;;;;9.63;5.17;;;20.00;49.90;;;;;;5075741;28;20196;-54
2023/07/26 04:13:42;;;;;;;12.43;5.60;;;20.00;50.00;;;;;;5075797;28;20228;-52
2023/07/26 04:16:16;;;;;;;9.93;5.10;;;20.00;50.10;;;;;;5075789;28;20173;-55
2023/07/26 04:18:42;;;;;;;9.27;5.43;;;20.00;50.00;;;;;;5075941;28;20834;-51
2023/07/26 04:21:13;;;;;;;9.23;5.40;;;20.00;50.00;;;;;;5075504;28;20279;-54
2023/07/26 04:23:39;;;;;;;12.88;5.82;;;20.00;50.10;;;;;;5075727;28;20387;-54
2023/07/26 04:26:05;;;;;;;11.30;4.40;;;20.00;49.90;;;;;;5075765;28;20177;-52
2023/07/26 04:28:31;;;;;;;10.10;4.90;;;20.00;49.90;;;;;;5075581;28;20907;-56
2023/07/26 04:30:57;;;;;;;17.73;5.80;;;20.00;49.90;;;;;;5075251;28;20193;-54
2023/07/26 04:33:22;;;;;;;10.40;4.83;;;20.00;49.70;;;;;;5075806;28;20235;-52
2023/07/26 04:35:48;;;;;;;7.53;4.90;;;20.00;49.70;;;;;;5075756;28;20532;-50
2023/07/26 04:38:14;;;;;;;6.83;4.50;;;20.00;49.90;;;;;;5075489;28;20573;-55
2023/07/26 04:40:40;;;;;;;16.17;5.50;;;20.00;49.90;;;;;;5075040;28;20418;-52
2023/07/26 04:43:06;;;;;;;8.20;4.57;;;20.00;49.90;;;;;;5075336;28;20541;-52
2023/07/26 04:45:32;;;;;;;7.63;4.70;;;20.00;49.80;;;;;;5075515;28;20184;-54
2023/07/26 04:47:58;;;;;;;6.93;4.07;;;20.00;49.80;;;;;;5075559;28;20700;-54
2023/07/26 04:50:23;;;;;;;10.30;4.70;;;20.00;49.80;;;;;;5074808;28;20565;-52
2023/07/26 04:52:49;;;;;;;7.90;4.73;;;20.00;49.60;;;;;;5075141;28;20279;-55
2023/07/26 04:55:15;;;;;;;7.93;4.53;;;19.90;49.60;;;;;;5075196;28;20169;-54
2023/07/26 04:57:41;;;;;;;9.03;4.10;;;20.00;49.40;;;;;;5075019;28;20524;-51
2023/07/26 05:00:07;;;;;;;5.20;3.60;;;19.90;49.30;;;;;;5074814;28;20171;-51
2023/07/26 05:02:33;;;;;;;8.82;3.63;;;19.90;49.00;;;;;;5075203;28;20242;-54
2023/07/26 05:04:59;;;;;;;6.70;3.60;;;19.90;49.10;;;;;;5074911;28;20633;-54
2023/07/26 05:07:25;;;;;;;9.80;4.30;;;19.80;49.20;;;;;;5074859;28;20180;-52
2023/07/26 05:09:50;;;;;;;6.53;3.60;;;19.90;49.50;;;;;;5074696;28;20172;-52
2023/07/26 05:12:16;;;;;;;7.70;3.80;;;19.90;49.50;;;;;;5074573;28;20695;-55
2023/07/26 05:14:43;;;;;;;8.63;3.67;;;19.90;48.60;;;;;;5074645;28;20188;-53
2023/07/26 05:17:08;;;;;;;7.50;4.45;;;19.90;48.70;;;;;;5074750;28;20161;-53
2023/07/26 05:19:34;;;;;;;5.53;3.40;;;19.90;49.10;;;;;;5074372;28;20184;-55
2023/07/26 05:22:00;;;;;;;6.97;3.40;;;19.90;49.10;;;;;;5074611;28;20995;-52
2023/07/26 05:24:26;;;;;;;6.67;3.60;;;19.80;49.40;;;;;;5074825;28;20252;-52
2023/07/26 05:26:52;;;;;;;6.53;4.50;;;19.90;49.50;;;;;;5074568;28;20544;-54
2023/07/26 05:29:17;;;;;;;7.00;3.27;;;19.90;49.50;;;;;;5074544;28;20181;-52
2023/07/26 05:31:44;;;;;;;9.83;4.17;;;20.00;49.40;;;;;;5074415;28;20676;-53
2023/07/26 05:34:10;;;;;;;8.20;3.20;;;20.00;49.10;;;;;;5074575;28;20276;-52
2023/07/26 05:36:36;;;;;;;6.23;3.30;;;20.10;48.60;;;;;;5074456;28;20219;-51
2023/07/26 05:39:02;;;;;;;6.35;3.40;;;20.10;48.70;;;;;;5074660;28;20399;-54
2023/07/26 05:41:31;;;;;;;7.73;3.77;;;20.10;49.20;;;;;;5074085;28;20597;-51
2023/07/26 05:43:59;;;;;;;7.50;3.97;;;20.10;48.70;;;;;;5074250;28;20422;-52
2023/07/26 05:46:25;;;;;;;7.03;3.50;;;20.20;48.40;;;;;;5074228;28;20179;-55
2023/07/26 05:48:51;;;;;;;7.67;3.53;;;20.20;48.50;;;;;;5074028;28;20188;-54
2023/07/26 05:51:17;;;;;;;10.60;3.67;;;20.20;47.80;;;;;;5073994;28;20292;-55
2023/07/26 05:53:42;;;;;;;7.80;3.47;;;20.20;48.00;;;;;;5074089;28;20849;-54
2023/07/26 05:56:08;;;;;;;11.63;4.33;;;20.20;48.10;;;;;;5074272;28;20429;-52
2023/07/26 05:58:35;;;;;;;14.50;4.32;;;20.20;47.80;;;;;;5074144;28;20183;-51
2023/07/26 06:01:00;;;;;;;7.18;3.28;;;20.20;47.30;;;;;;5073616;28;20219;-52
2023/07/26 06:03:26;;;;;;;7.20;3.20;;;20.10;47.40;;;;;;5073971;28;20380;-55
2023/07/26 06:05:52;;;;;;;9.03;4.00;;;20.10;47.70;;;;;;5073759;28;20510;-52
2023/07/26 06:08:19;;;;;;;9.00;3.40;;;20.10;48.10;;;;;;5073757;28;20176;-52
2023/07/26 06:10:44;;;;;;;4.95;2.80;;;20.10;47.90;;;;;;5073386;28;20438;-52
2023/07/26 06:13:12;;;;;;;7.80;3.33;;;20.20;48.10;;;;;;5073613;28;20204;-55
2023/07/26 06:15:41;;;;;;;7.22;3.20;;;20.20;48.30;;;;;;5073818;28;20406;-52
2023/07/26 06:18:07;;;;;;;6.18;3.30;;;20.20;48.00;;;;;;5073844;28;20242;-52
2023/07/26 06:20:34;;;;;;;8.95;3.58;;;20.30;47.90;;;;;;5073220;28;20187;-54
2023/07/26 06:23:00;;;;;;;6.63;3.28;;;20.40;48.00;;;;;;5073450;28;20191;-51
2023/07/26 06:25:26;;;;;;;6.90;3.72;;;20.40;47.70;;;;;;5073585;28;20183;-51
2023/07/26 06:27:52;;;;;;;6.07;3.10;;;20.40;47.10;;;;;;5073469;28;20181;-51
2023/07/26 06:30:17;;;;;;;6.93;2.83;;;20.40;47.00;;;;;;5072585;28;20984;-52
2023/07/26 06:32:43;;;;;;;7.03;3.37;;;20.40;47.10;;;;;;5069063;28;20225;-52
2023/07/26 06:35:10;;;;;;;9.30;3.03;;;20.50;46.70;;;;;;5072410;28;20433;-55
2023/07/26 06:37:36;;;;;;;7.43;3.22;;;20.50;45.30;;;;;;5073194;28;20175;-55
2023/07/26 06:40:03;;;;;;;5.00;2.90;;;20.40;46.00;;;;;;5072764;28;20199;-52
2023/07/26 06:42:29;;;;;;;6.15;2.88;;;20.40;46.90;;;;;;5073109;28;20171;-54
2023/07/26 06:44:55;;;;;;;6.93;3.05;;;20.50;47.00;;;;;;5073017;28;20184;-52
2023/07/26 06:47:21;;;;;;;10.00;3.10;;;20.50;46.40;;;;;;5072987;28;20176;-51
2023/07/26 06:49:46;;;;;;;3.70;2.53;;;20.50;47.20;;;;;;5072716;28;20411;-53
2023/07/26 06:52:12;;;;;;;4.70;2.40;;;20.60;46.30;;;;;;5072809;28;20237;-50
2023/07/26 06:54:38;;;;;;;3.60;2.70;;;20.60;46.30;;;;;;5072704;28;21059;-52
2023/07/26 06:57:04;;;;;;;15.27;3.57;;;20.70;46.70;;;;;;5072896;28;20486;-53
2023/07/26 06:59:30;;;;;;;8.38;3.70;;;20.80;45.80;;;;;;5072517;28;20934;-51
2023/07/26 07:01:56;;;;;;;11.57;3.57;;;21.00;45.20;;;;;;5072661;28;20197;-51
2023/07/26 07:04:22;;;;;;;5.63;3.43;;;21.10;44.60;;;;;;5073046;28;20269;-51
2023/07/26 07:06:48;;;;;;;7.10;3.40;;;21.10;43.60;;;;;;5072698;28;20575;-55
2023/07/26 07:09:15;;;;;;;4.40;2.60;;;21.00;43.40;;;;;;5072469;28;20403;-52
2023/07/26 07:11:41;;;;;;;5.18;2.53;;;21.00;44.00;;;;;;5072541;28;20206;-51
2023/07/26 07:14:06;;;;;;;5.80;2.80;;;21.00;42.80;;;;;;5072424;28;20303;-54
2023/07/26 07:16:33;;;;;;;7.30;4.17;;;20.90;43.30;;;;;;5072439;28;20407;-51
2023/07/26 07:18:58;;;;;;;5.25;2.88;;;20.90;44.30;;;;;;5072437;28;20417;-52
2023/07/26 07:21:24;;;;;;;5.83;2.77;;;21.00;44.80;;;;;;5072149;28;20181;-51
2023/07/26 07:23:50;;;;;;;4.90;3.33;;;21.10;45.00;;;;;;5072378;28;20177;-54
2023/07/26 07:26:17;;;;;;;12.35;3.70;;;21.20;44.00;;;;;;5072461;28;20659;-51
2023/07/26 07:28:43;;;;;;;7.53;2.97;;;21.30;45.20;;;;;;5072276;28;20188;-52
2023/07/26 07:31:09;;;;;;;2.95;2.65;;;21.50;43.80;;;;;;5072007;28;20188;-53
2023/07/26 07:33:35;;;;;;;7.63;2.80;;;21.60;42.40;;;;;;5072281;28;20212;-54
2023/07/26 07:36:01;;;;;;;4.40;2.50;;;21.60;42.20;;;;;;5072558;28;20863;-53
2023/07/26 07:38:27;;;;;;;5.27;2.80;;;21.50;42.30;;;;;;5072245;28;20173;-52
2023/07/26 07:40:52;;;;;;;4.97;1.80;;;21.60;42.30;;;;;;5072236;28;20509;-52
2023/07/26 07:43:18;;;;;;;7.00;2.03;;;21.60;42.60;;;;;;5072242;28;20175;-51
2023/07/26 07:45:44;;;;;;;10.90;2.47;;;21.70;41.00;;;;;;5072170;28;20168;-53
2023/07/26 07:48:11;;;;;;;5.97;2.30;;;21.60;40.60;;;;;;5072277;28;20187;-51
2023/07/26 07:50:37;;;;;;;4.40;2.63;;;21.70;40.50;;;;;;5071945;28;20200;-52
2023/07/26 07:53:03;;;;;;;3.80;2.13;;;21.70;41.20;;;;;;5072238;28;20265;-55
2023/07/26 07:55:31;;;;;;;7.57;3.17;;;21.90;42.50;;;;;;5072068;28;20172;-54
2023/07/26 07:58:01;;;;;;;5.43;2.33;;;22.10;43.30;;;;;;5072140;28;20406;-52
2023/07/26 08:00:27;;;;;;;5.70;2.87;;;22.20;43.30;;;;;;5072132;28;20454;-52
2023/07/26 08:02:53;;;;;;;6.00;2.03;;;22.40;41.60;;;;;;5072087;28;20903;-54
2023/07/26 08:05:19;;;;;;;5.40;2.53;;;22.40;42.10;;;;;;5071942;28;20411;-53
2023/07/26 08:07:45;;;;;;;5.30;3.00;;;22.50;40.50;;;;;;5072320;28;20422;-50
2023/07/26 08:10:10;;;;;;;5.13;2.33;;;22.40;40.80;;;;;;5071800;28;20815;-52
2023/07/26 08:12:36;;;;;;;11.77;2.80;;;22.40;39.50;;;;;;5071912;28;20648;-50
2023/07/26 08:15:03;;;;;;;4.50;1.97;;;22.40;38.90;;;;;;5071895;28;20302;-52
2023/07/26 08:17:28;;;;;;;3.00;1.80;;;22.30;38.10;;;;;;5071989;28;20633;-53
2023/07/26 08:19:54;;;;;;;3.33;2.17;;;22.20;38.50;;;;;;5071573;28;20177;-51
2023/07/26 08:22:20;;;;;;;3.23;1.80;;;22.20;39.50;;;;;;5072052;28;20196;-51
2023/07/26 08:24:46;;;;;;;3.60;2.23;;;22.30;40.40;;;;;;5071990;28;20625;-53
2023/07/26 08:27:11;;;;;;;7.27;2.53;;;22.50;41.40;;;;;;5071748;28;20172;-53
2023/07/26 08:29:37;;;;;;;5.13;3.03;;;22.70;40.80;;;;;;5071585;28;20180;-51
2023/07/26 08:32:03;;;;;;;7.30;3.00;;;22.80;39.90;;;;;;5071676;28;20641;-53
2023/07/26 08:34:29;;;;;;;4.83;2.40;;;22.90;39.60;;;;;;5071488;28;20537;-51
2023/07/26 08:36:55;;;;;;;3.30;1.80;;;22.90;37.70;;;;;;5071991;28;20477;-54
2023/07/26 08:39:21;;;;;;;3.17;1.90;;;23.00;37.90;;;;;;5071405;28;20625;-54
2023/07/26 08:41:49;;;;;;;5.07;2.37;;;23.00;38.40;;;;;;5071675;28;20193;-52
2023/07/26 08:44:15;;;;;;;3.03;2.17;;;23.20;37.30;;;;;;5071450;28;20625;-51
2023/07/26 08:46:45;;;;;;;4.90;2.13;;;23.20;37.80;;;;;;5071597;28;20418;-53
2023/07/26 08:49:12;;;;;;;5.17;2.10;;;23.40;39.30;;;;;;5071419;28;20411;-53
2023/07/26 08:51:39;;;;;;;7.47;2.80;;;23.50;38.70;;;;;;5071233;28;20439;-51
2023/07/26 08:54:06;;;;;;;4.33;1.93;;;23.50;37.30;;;;;;5073930;28;20454;-53
2023/07/26 08:56:32;;;;;;;3.27;1.80;;;23.50;36.70;;;;;;5075069;28;20414;-53
2023/07/26 08:58:59;;;;;;;4.70;2.60;;;23.40;36.50;;;;;;5075061;28;20407;-51
2023/07/26 09:01:26;;;;;;;3.77;1.93;;;23.20;35.80;;;;;;5074768;28;20430;-52
2023/07/26 09:03:52;;;;;;;4.70;2.43;;;23.00;37.90;;;;;;5075392;28;20964;-50
2023/07/26 09:06:19;;;;;;;6.83;2.17;;;22.90;37.70;;;;;;5075033;28;20437;-54
2023/07/26 09:08:46;;;;;;;5.90;2.80;;;22.80;37.00;;;;;;5074985;28;20503;-51
2023/07/26 09:11:26;;;;;;;6.67;2.13;;;22.80;36.80;;;;;;5074899;28;20525;-54
2023/07/26 09:13:59;;;;;;;5.13;2.67;;;22.80;38.00;;;;;;5074710;28;20454;-51
2023/07/26 09:16:30;;;;;;;4.97;2.40;;;22.90;38.50;;;;;;5074772;28;20419;-55
2023/07/26 09:19:04;;;;;;;4.50;1.93;;;23.00;38.20;;;;;;5075033;28;20446;-52
2023/07/26 09:21:35;;;;;;;5.00;2.30;;;23.20;38.60;;;;;;5074744;28;20484;-52
2023/07/26 09:24:05;;;;;;;5.23;2.33;;;23.30;38.00;;;;;;5074639;28;20418;-54
2023/07/26 09:26:35;;;;;;;3.80;2.23;;;23.50;38.40;;;;;;5074564;28;20421;-51
2023/07/26 09:29:04;;;;;;;3.03;2.63;;;23.70;37.60;;;;;;5074722;28;20411;-51
2023/07/26 09:31:32;;;;;;;5.17;2.30;;;23.80;38.20;;;;;;5074410;28;20426;-54
2023/07/26 09:34:06;;;;;;;5.10;2.10;;;23.90;37.60;;;;;;5074625;28;20461;-54
2023/07/26 09:36:49;;;;;;;5.37;2.33;;;24.10;37.00;;;;;;5074511;28;20886;-51
2023/07/26 09:39:16;;;;;;;11.33;3.37;;;24.20;37.10;;;;;;5074256;28;20411;-52
2023/07/26 09:41:45;;;;;;;6.77;2.37;;;24.30;38.20;;;;;;5074304;28;20965;-52
2023/07/26 09:44:17;;;;;;;4.43;2.00;;;24.40;36.70;;;;;;5074262;28;20415;-52
2023/07/26 09:46:55;;;;;;;4.20;2.20;;;24.50;34.20;;;;;;5074342;28;20442;-52
2023/07/26 09:49:26;;;;;;;2.87;1.80;;;24.50;33.40;;;;;;5074314;28;20497;-52
2023/07/26 09:51:57;;;;;;;4.80;2.40;;;24.50;34.50;;;;;;5074070;28;20434;-55
2023/07/26 09:54:27;;;;;;;6.13;2.30;;;24.70;35.20;;;;;;5074127;28;20485;-51
2023/07/26 09:56:55;;;;;;;3.50;1.90;;;24.80;35.20;;;;;;5074012;28;20790;-51
2023/07/26 09:59:25;;;;;;;4.37;1.83;;;24.80;34.00;;;;;;5073921;28;20403;-54
2023/07/26 10:01:52;;;;;;;2.53;1.43;;;24.70;34.20;;;;;;5074197;28;20427;-54
2023/07/26 10:04:40;;;;;;;4.30;2.27;;;24.60;32.10;;;;;;5073436;28;20418;-50
2023/07/26 10:07:10;;;;;;;4.37;2.47;;;24.50;33.30;;;;;;5074143;28;20443;-54
2023/07/26 10:09:43;;;;;;;2.40;2.00;;;24.70;33.80;;;;;;5073879;28;20415;-54
2023/07/26 10:12:10;;;;;;;3.43;2.10;;;24.90;34.20;;;;;;5074106;28;20463;-51
2023/07/26 10:14:36;;;;;;;3.47;2.57;;;25.00;32.50;;;;;;5074001;28;20477;-53
2023/07/26 10:17:04;;;;;;;2.40;1.70;;;24.90;31.30;;;;;;5074311;28;20411;-51
2023/07/26 10:19:31;;;;;;;4.53;2.60;;;24.80;31.80;;;;;;5073839;28;20411;-51
2023/07/26 10:21:57;;;;;;;4.80;2.80;;;24.60;32.50;;;;;;5074064;28;20446;-53
2023/07/26 10:24:24;;;;;;;5.00;3.67;;;24.60;32.80;;;;;;5074246;28;20472;-52
2023/07/26 10:26:52;;;;;;;4.40;3.50;;;24.60;31.70;;;;;;5074157;28;20407;-51
2023/07/26 10:29:19;;;;;;;5.67;4.03;;;24.60;32.00;;;;;;5073672;28;20407;-53
2023/07/26 10:31:46;;;;;;;4.53;2.90;;;24.70;33.10;;;;;;5073857;28;20477;-51
2023/07/26 10:34:21;;;;;;;4.20;3.80;;;24.80;33.60;;;;;;5073838;28;20462;-52
2023/07/26 10:36:47;;;;;;;5.40;3.67;;;25.10;32.20;;;;;;5073686;28;20402;-54
2023/07/26 10:39:14;;;;;;;9.80;3.20;;;25.10;32.70;;;;;;5073661;28;20490;-51
2023/07/26 10:41:50;;;;;;;4.80;2.40;;;25.30;33.20;;;;;;5074005;28;20476;-52
2023/07/26 10:44:16;;;;;;;4.13;1.67;;;25.40;30.60;;;;;;5073037;28;20790;-54
2023/07/26 10:47:03;;;;;;;4.00;2.13;;;25.50;29.80;;;;;;5073930;28;20407;-52
2023/07/26 10:49:30;;;;;;;3.30;1.53;;;25.70;30.90;;;;;;5073829;28;20422;-51
2023/07/26 10:52:04;;;;;;;3.00;1.60;;;25.90;29.20;;;;;;5073732;28;20431;-52
2023/07/26 10:54:35;;;;;;;2.43;1.70;;;26.00;30.90;;;;;;5073751;28;20881;-54
2023/07/26 10:57:23;;;;;;;3.10;1.97;;;26.10;29.60;;;;;;5073970;28;20498;-51
2023/07/26 11:00:18;;;;;;;4.23;2.40;;;25.90;28.20;;;;;;5073416;28;20924;-54
2023/07/26 11:02:59;;;;;;;2.20;1.70;;;25.70;28.60;;;;;;5073895;28;20414;-51
2023/07/26 11:05:29;;;;;;;3.73;2.07;;;25.40;29.50;;;;;;5073513;28;20402;-52
2023/07/26 11:07:59;;;;;;;3.90;2.27;;;25.10;28.90;;;;;;5073623;28;20411;-54
2023/07/26 11:10:33;;;;;;;2.30;1.63;;;25.00;28.90;;;;;;5073337;28;20915;-51
2023/07/26 11:13:13;;;;;;;3.50;1.90;;;24.80;29.40;;;;;;5073278;28;20448;-53
2023/07/26 11:15:41;;;;;;;2.50;1.60;;;24.60;30.70;;;;;;5073392;28;20489;-52
2023/07/26 11:18:09;;;;;;;2.90;2.00;;;24.60;30.20;;;;;;5073363;28;20399;-52
2023/07/26 11:20:39;;;;;;;10.83;3.27;;;24.50;30.20;;;;;;5073027;28;20427;-55
2023/07/26 11:23:34;;;;;;;9.40;2.07;;;24.50;30.40;;;;;;5073174;28;21010;-51
2023/07/26 11:26:01;;;;;;;9.10;2.23;;;24.50;31.30;;;;;;5072276;28;20541;-52
2023/07/26 11:28:33;;;;;;;4.47;2.70;;;24.50;30.80;;;;;;5072944;28;20817;-55
2023/07/26 11:31:00;;;;;;;3.33;2.47;;;24.70;30.10;;;;;;5072995;28;20434;-51
2023/07/26 11:33:33;;;;;;;10.80;2.13;;;24.80;32.30;;;;;;5072912;28;20995;-53
2023/07/26 11:36:01;;;;;;;2.67;2.13;;;25.00;30.90;;;;;;5073100;28;20411;-52
2023/07/26 11:38:27;;;;;;;3.33;2.30;;;25.00;29.00;;;;;;5073386;28;20403;-51
2023/07/26 11:40:55;;;;;;;1.90;1.70;;;25.00;30.00;;;;;;5072739;28;20513;-53
2023/07/26 11:43:23;;;;;;;4.23;1.80;;;24.90;29.40;;;;;;5072920;28;20410;-52
2023/07/26 11:45:49;;;;;;;4.00;2.00;;;24.90;30.30;;;;;;5072761;28;20476;-53
2023/07/26 11:48:15;;;;;;;3.20;2.03;;;25.00;31.20;;;;;;5072884;28;20403;-53
2023/07/26 11:50:42;;;;;;;4.20;2.20;;;25.20;30.80;;;;;;5072970;28;20434;-50
2023/07/26 11:53:09;;;;;;;2.57;2.37;;;25.40;30.30;;;;;;5073090;28;20454;-52
2023/07/26 11:55:40;;;;;;;5.90;1.77;;;25.60;30.70;;;;;;5073216;28;20855;-55
2023/07/26 11:58:11;;;;;;;5.50;1.73;;;25.90;29.30;;;;;;5072782;28;20465;-52
2023/07/26 12:00:42;;;;;;;2.50;1.43;;;26.00;28.90;;;;;;5072237;28;20435;-51
2023/07/26 12:03:08;;;;;;;2.87;1.70;;;26.00;28.90;;;;;;5072900;28;20406;-54
2023/07/26 12:05:34;;;;;;;5.20;2.27;;;26.20;29.80;;;;;;5072573;28;20406;-54
2023/07/26 12:08:04;;;;;;;3.87;2.03;;;26.30;30.00;;;;;;5072726;28;20723;-52
2023/07/26 12:10:35;;;;;;;3.13;2.13;;;26.40;28.60;;;;;;5072013;28;20423;-51
2023/07/26 12:13:07;;;;;;;3.20;2.17;;;26.40;26.80;;;;;;5072083;28;20485;-53
2023/07/26 12:15:51;;;;;;;3.47;2.10;;;26.10;27.20;;;;;;5072381;28;20494;-53
2023/07/26 12:18:18;;;;;;;2.70;1.93;;;25.90;26.90;;;;;;5072677;28;20388;-52
2023/07/26 12:20:59;;;;;;;5.10;2.00;;;25.60;27.40;;;;;;5072109;28;20422;-55
2023/07/26 12:23:26;;;;;;;2.37;1.70;;;25.40;28.30;;;;;;5072322;28;20418;-52
2023/07/26 12:25:54;;;;;;;4.37;2.17;;;25.30;29.90;;;;;;5072578;28;21057;-52
2023/07/26 12:28:19;;;;;;;2.60;1.87;;;25.40;30.40;;;;;;5074060;28;20498;-52
2023/07/26 12:30:55;;;;;;;4.80;1.90;;;25.50;30.30;;;;;;5076263;28;20935;-55
2023/07/26 12:33:21;;;;;;;2.00;1.53;;;25.70;29.90;;;;;;5076508;28;20196;-53
2023/07/26 12:35:47;;;;;;;3.80;2.50;;;25.80;28.40;;;;;;5076356;28;20958;-56
2023/07/26 12:38:17;;;;;;;3.13;2.10;;;26.00;28.70;;;;;;5076296;28;20434;-54
2023/07/26 12:40:44;;;;;;;1.93;1.60;;;26.20;29.80;;;;;;5076321;28;20423;-52
2023/07/26 12:43:30;;;;;;;2.20;1.47;;;26.50;30.10;;;;;;5076636;28;20403;-52
2023/07/26 12:45:58;;;;;;;2.47;1.40;;;26.60;28.10;;;;;;5076247;28;20395;-52
2023/07/26 12:48:25;;;;;;;4.73;2.73;;;26.50;28.30;;;;;;5075984;28;20407;-51